createdAt,value
2019-05-02T00:01:42.923Z,32.43
2019-05-02T00:04:12.479Z,32.43
2019-05-02T00:06:42.435Z,31.67
2019-05-02T00:09:09.234Z,33.73
2019-05-02T00:11:33.859Z,33.90
2019-05-02T00:14:01.617Z,33.03
2019-05-02T00:16:29.060Z,32.33
2019-05-02T00:18:56.471Z,30.33
2019-05-02T00:21:23.960Z,33.47
2019-05-02T00:23:51.430Z,34.70
2019-05-02T00:26:18.914Z,34.35
2019-05-02T00:28:47.952Z,38.10
2019-05-02T00:31:13.826Z,36.47
2019-05-02T00:33:41.295Z,33.17
2019-05-02T00:36:08.821Z,34.87
2019-05-02T00:38:38.355Z,34.95
2019-05-02T00:41:03.812Z,35.90
2019-05-02T00:43:34.418Z,35.33
2019-05-02T00:45:59.736Z,37.45
2019-05-02T00:48:27.045Z,33.83
2019-05-02T00:50:54.547Z,36.80
2019-05-02T00:53:21.983Z,34.87
2019-05-02T00:55:49.419Z,34.40
2019-05-02T00:58:16.919Z,33.97
2019-05-02T01:00:56.056Z,35.13
2019-05-02T01:03:23.483Z,33.10
2019-05-02T01:05:50.923Z,31.97
2019-05-02T01:08:18.734Z,30.50
2019-05-02T01:10:46.148Z,31.87
2019-05-02T01:13:14.795Z,30.75
2019-05-02T01:15:44.007Z,30.03
2019-05-02T01:18:08.772Z,30.08
2019-05-02T01:20:36.171Z,29.30
2019-05-02T01:23:03.919Z,32.63
2019-05-02T01:25:31.397Z,31.90
2019-05-02T01:28:04.294Z,32.03
2019-05-02T01:30:37.164Z,29.90
2019-05-02T01:33:17.448Z,31.62
2019-05-02T01:35:47.135Z,30.23
2019-05-02T01:38:18.979Z,30.60
2019-05-02T01:40:48.152Z,29.63
2019-05-02T01:43:23.990Z,27.73
2019-05-02T01:45:48.375Z,28.83
2019-05-02T01:48:15.803Z,28.97
2019-05-02T01:50:43.285Z,30.03
2019-05-02T01:53:10.740Z,34.43
2019-05-02T01:55:38.180Z,32.40
2019-05-02T01:58:05.613Z,32.72
2019-05-02T02:00:33.069Z,32.85
2019-05-02T02:03:04.278Z,30.83
2019-05-02T02:05:32.215Z,29.53
2019-05-02T02:07:57.199Z,32.17
2019-05-02T02:10:22.840Z,31.58
2019-05-02T02:13:02.935Z,34.27
2019-05-02T02:15:17.756Z,34.00
2019-05-02T02:17:46.859Z,33.47
2019-05-02T02:20:14.026Z,30.77
2019-05-02T02:22:44.025Z,30.43
2019-05-02T02:25:36.122Z,33.17
2019-05-02T02:28:00.904Z,31.77
2019-05-02T02:30:27.081Z,33.50
2019-05-02T02:33:00.613Z,32.07
2019-05-02T02:35:21.963Z,32.37
2019-05-02T02:37:52.935Z,34.00
2019-05-02T02:40:16.839Z,33.70
2019-05-02T02:42:44.268Z,31.93
2019-05-02T02:45:18.751Z,34.10
2019-05-02T02:47:46.027Z,33.40
2019-05-02T02:50:15.252Z,32.43
2019-05-02T02:52:44.743Z,31.77
2019-05-02T02:55:10.279Z,29.70
2019-05-02T02:57:37.700Z,27.27
2019-05-02T03:00:08.705Z,30.27
2019-05-02T03:02:33.260Z,31.05
2019-05-02T03:05:00.683Z,30.20
2019-05-02T03:07:28.980Z,30.40
2019-05-02T03:09:59.742Z,32.40
2019-05-02T03:12:41.472Z,30.87
2019-05-02T03:15:06.369Z,30.23
2019-05-02T03:17:33.771Z,30.20
2019-05-02T03:20:03.722Z,31.20
2019-05-02T03:22:34.976Z,31.53
2019-05-02T03:24:56.196Z,30.80
2019-05-02T03:27:29.971Z,31.03
2019-05-02T03:29:51.165Z,32.28
2019-05-02T03:32:31.348Z,32.15
2019-05-02T03:34:52.299Z,32.30
2019-05-02T03:37:14.328Z,32.23
2019-05-02T03:39:41.729Z,30.95
2019-05-02T03:42:09.195Z,31.33
2019-05-02T03:44:36.634Z,30.13
2019-05-02T03:47:04.955Z,30.77
2019-05-02T03:49:31.575Z,29.10
2019-05-02T03:52:02.522Z,28.75
2019-05-02T03:54:26.496Z,30.62
2019-05-02T03:56:53.926Z,30.48
2019-05-02T03:59:21.616Z,29.87
2019-05-02T04:01:49.105Z,30.80
2019-05-02T04:04:20.591Z,29.43
2019-05-02T04:06:44.825Z,30.93
2019-05-02T04:09:12.257Z,31.33
2019-05-02T04:11:40.996Z,29.27
2019-05-02T04:14:15.173Z,28.00
2019-05-02T04:16:34.601Z,28.67
2019-05-02T04:19:02.039Z,28.92
2019-05-02T04:21:29.465Z,30.77
2019-05-02T04:24:06.709Z,29.23
2019-05-02T04:26:24.406Z,30.77
2019-05-02T04:28:52.195Z,28.43
2019-05-02T04:31:24.720Z,28.80
2019-05-02T04:33:46.781Z,28.92
2019-05-02T04:36:17.287Z,29.07
2019-05-02T04:38:47.447Z,28.30
2019-05-02T04:41:09.510Z,28.17
2019-05-02T04:43:40.642Z,28.77
2019-05-02T04:46:09.342Z,28.67
2019-05-02T04:48:34.818Z,27.37
2019-05-02T04:51:10.387Z,28.47
2019-05-02T04:53:36.943Z,26.13
2019-05-02T04:56:01.622Z,28.45
2019-05-02T04:58:27.544Z,26.53
2019-05-02T05:00:53.494Z,25.60
2019-05-02T05:03:21.263Z,24.87
2019-05-02T05:05:48.213Z,26.20
2019-05-02T05:08:17.528Z,25.73
2019-05-02T05:10:44.917Z,27.13
2019-05-02T05:13:12.096Z,27.97
2019-05-02T05:15:44.559Z,26.98
2019-05-02T05:18:04.494Z,28.30
2019-05-02T05:20:30.792Z,27.73
2019-05-02T05:22:58.219Z,27.87
2019-05-02T05:25:37.719Z,26.20
2019-05-02T05:28:05.826Z,27.53
2019-05-02T05:30:30.466Z,26.80
2019-05-02T05:32:58.364Z,28.48
2019-05-02T05:35:25.418Z,27.80
2019-05-02T05:37:53.424Z,28.23
2019-05-02T05:40:22.719Z,28.17
2019-05-02T05:42:48.192Z,28.17
2019-05-02T05:45:17.340Z,27.47
2019-05-02T05:47:42.791Z,29.27
2019-05-02T05:50:10.241Z,29.53
2019-05-02T05:52:38.680Z,30.45
2019-05-02T05:55:05.203Z,29.70
2019-05-02T05:57:32.681Z,28.47
2019-05-02T06:00:03.723Z,30.83
2019-05-02T06:02:28.416Z,29.65
2019-05-02T06:04:59.066Z,30.23
2019-05-02T06:07:22.556Z,31.65
2019-05-02T06:09:51.385Z,30.73
2019-05-02T06:12:19.049Z,32.80
2019-05-02T06:14:46.676Z,32.03
2019-05-02T06:17:13.967Z,33.17
2019-05-02T06:19:41.370Z,34.00
2019-05-02T06:22:08.830Z,31.60
2019-05-02T06:24:36.305Z,29.23
2019-05-02T06:27:03.728Z,28.33
2019-05-02T06:29:31.160Z,28.87
2019-05-02T06:31:59.526Z,28.23
2019-05-02T06:34:26.930Z,29.27
2019-05-02T06:36:54.379Z,29.97
2019-05-02T06:39:21.854Z,29.40
2019-05-02T06:41:51.994Z,30.95
2019-05-02T06:44:23.856Z,27.13
2019-05-02T06:46:46.284Z,29.83
2019-05-02T06:49:13.706Z,29.63
2019-05-02T06:51:41.164Z,29.33
2019-05-02T06:54:08.604Z,28.63
2019-05-02T06:56:36.050Z,30.93
2019-05-02T06:59:03.504Z,29.80
2019-05-02T07:01:30.912Z,29.15
2019-05-02T07:03:58.336Z,32.83
2019-05-02T07:06:26.004Z,31.10
2019-05-02T07:08:53.269Z,34.63
2019-05-02T07:11:20.917Z,31.95
2019-05-02T07:13:48.342Z,31.47
2019-05-02T07:16:30.301Z,32.37
2019-05-02T07:18:49.578Z,34.77
2019-05-02T07:21:17.333Z,34.17
2019-05-02T07:23:42.983Z,38.80
2019-05-02T07:26:10.433Z,43.10
2019-05-02T07:28:40.170Z,48.50
2019-05-02T07:31:06.569Z,43.07
2019-05-02T07:33:37.413Z,43.47
2019-05-02T07:36:01.352Z,40.23
2019-05-02T07:38:27.701Z,38.63
2019-05-02T07:40:55.168Z,41.47
2019-05-02T07:43:22.650Z,39.33
2019-05-02T07:45:50.182Z,36.97
2019-05-02T07:48:18.966Z,34.77
2019-05-02T07:50:46.389Z,31.80
2019-05-02T07:53:14.325Z,32.58
2019-05-02T07:55:40.859Z,30.57
2019-05-02T07:58:08.263Z,30.90
2019-05-02T08:00:37.028Z,33.17
2019-05-02T08:03:04.969Z,31.33
2019-05-02T08:05:29.910Z,30.02
2019-05-02T08:07:57.732Z,33.27
2019-05-02T08:10:25.265Z,31.45
2019-05-02T08:12:52.759Z,31.93
2019-05-02T08:15:20.230Z,31.67
2019-05-02T08:17:53.319Z,33.97
2019-05-02T08:20:19.091Z,35.13
2019-05-02T08:22:44.023Z,32.30
2019-05-02T08:25:10.727Z,32.80
2019-05-02T08:27:38.218Z,30.50
2019-05-02T08:30:05.911Z,30.20
2019-05-02T08:32:33.185Z,32.05
2019-05-02T08:35:00.641Z,33.10
2019-05-02T08:37:28.048Z,33.40
2019-05-02T08:39:55.507Z,30.52
2019-05-02T08:42:27.731Z,33.63
2019-05-02T08:44:56.421Z,33.38
2019-05-02T08:47:23.870Z,34.13
2019-05-02T08:49:49.257Z,32.03
2019-05-02T08:52:15.057Z,31.87
2019-05-02T08:54:42.516Z,32.87
2019-05-02T08:57:09.992Z,32.73
2019-05-02T08:59:37.442Z,31.65
2019-05-02T09:02:04.942Z,31.80
2019-05-02T09:04:33.090Z,30.83
2019-05-02T09:07:00.912Z,30.73
2019-05-02T09:09:29.484Z,35.50
2019-05-02T09:12:09.080Z,34.10
2019-05-02T09:14:23.185Z,33.53
2019-05-02T09:16:52.332Z,32.60
2019-05-02T09:19:21.325Z,32.10
2019-05-02T09:21:45.549Z,33.43
2019-05-02T09:24:18.889Z,33.23
2019-05-02T09:26:42.458Z,32.53
2019-05-02T09:29:08.063Z,33.27
2019-05-02T09:31:36.677Z,32.70
2019-05-02T09:34:03.013Z,34.47
2019-05-02T09:36:32.280Z,32.67
2019-05-02T09:38:58.889Z,35.00
2019-05-02T09:41:26.998Z,34.07
2019-05-02T09:43:53.873Z,34.63
2019-05-02T09:46:21.775Z,33.23
2019-05-02T09:48:48.816Z,33.13
2019-05-02T09:51:17.321Z,36.03
2019-05-02T09:53:43.801Z,33.87
2019-05-02T09:56:12.668Z,31.15
2019-05-02T09:58:39.021Z,34.28
2019-05-02T10:01:09.072Z,35.50
2019-05-02T10:03:37.950Z,34.60
2019-05-02T10:06:08.340Z,32.50
2019-05-02T10:08:32.942Z,36.53
2019-05-02T10:11:02.614Z,36.03
2019-05-02T10:13:27.857Z,34.57
2019-05-02T10:15:55.937Z,34.85
2019-05-02T10:18:25.513Z,37.45
2019-05-02T10:20:52.401Z,36.15
2019-05-02T10:23:19.472Z,35.83
2019-05-02T10:25:46.905Z,35.10
2019-05-02T10:28:13.372Z,35.97
2019-05-02T10:30:42.607Z,33.80
2019-05-02T10:33:08.340Z,32.47
2019-05-02T10:35:40.822Z,36.63
2019-05-02T10:38:09.519Z,30.50
2019-05-02T10:40:33.746Z,33.87
2019-05-02T10:43:02.875Z,33.58
2019-05-02T10:45:28.606Z,31.47
2019-05-02T10:47:56.472Z,29.45
2019-05-02T10:50:24.674Z,36.30
2019-05-02T10:52:52.729Z,31.27
2019-05-02T10:55:22.261Z,32.50
2019-05-02T10:58:05.601Z,30.77
2019-05-02T11:00:35.069Z,27.33
2019-05-02T11:03:08.019Z,32.67
2019-05-02T11:05:37.319Z,31.97
2019-05-02T11:08:06.217Z,32.47
2019-05-02T11:10:32.176Z,37.15
2019-05-02T11:13:01.890Z,36.03
2019-05-02T11:15:33.311Z,34.17
2019-05-02T11:18:02.296Z,31.27
2019-05-02T11:20:28.250Z,34.38
2019-05-02T11:22:56.646Z,32.10
2019-05-02T11:25:24.246Z,35.40
2019-05-02T11:27:52.518Z,34.63
2019-05-02T11:30:22.285Z,37.87
2019-05-02T11:32:46.720Z,32.67
2019-05-02T11:35:14.733Z,34.50
2019-05-02T11:37:42.330Z,34.13
2019-05-02T11:40:09.730Z,33.10
2019-05-02T11:42:37.238Z,32.88
2019-05-02T11:45:04.719Z,34.07
2019-05-02T11:47:32.876Z,31.83
2019-05-02T11:49:59.732Z,28.93
2019-05-02T11:52:32.067Z,30.92
2019-05-02T11:54:55.005Z,29.00
2019-05-02T11:57:28.491Z,28.10
2019-05-02T11:59:51.942Z,25.03
2019-05-02T12:02:28.510Z,32.03
2019-05-02T12:04:55.981Z,31.33
2019-05-02T12:07:23.421Z,27.27
2019-05-02T12:09:56.508Z,25.73
2019-05-02T12:12:18.950Z,26.87
2019-05-02T12:14:46.462Z,30.03
2019-05-02T12:17:13.901Z,29.97
2019-05-02T12:19:42.556Z,26.97
2019-05-02T12:22:12.949Z,27.63
2019-05-02T12:24:40.363Z,27.10
2019-05-02T12:27:03.722Z,26.98
2019-05-02T12:29:31.153Z,25.37
2019-05-02T12:31:58.590Z,26.77
2019-05-02T12:34:26.099Z,26.03
2019-05-02T12:36:53.518Z,27.00
2019-05-02T12:39:22.183Z,26.40
2019-05-02T12:41:48.819Z,25.37
2019-05-02T12:44:15.872Z,25.67
2019-05-02T12:46:43.333Z,29.30
2019-05-02T12:49:22.618Z,25.23
2019-05-02T12:51:38.308Z,27.87
2019-05-02T12:54:05.738Z,27.40
2019-05-02T12:56:33.218Z,24.52
2019-05-02T12:59:02.457Z,29.30
2019-05-02T13:01:29.956Z,25.12
2019-05-02T13:03:57.487Z,22.43
2019-05-02T13:06:24.940Z,24.95
2019-05-02T13:08:52.803Z,24.53
2019-05-02T13:11:19.886Z,22.40
2019-05-02T13:13:47.311Z,25.27
2019-05-02T13:16:14.793Z,22.37
2019-05-02T13:18:42.434Z,21.90
2019-05-02T13:21:15.159Z,23.87
2019-05-02T13:23:37.619Z,23.10
2019-05-02T13:26:10.432Z,21.77
2019-05-02T13:28:32.515Z,21.45
2019-05-02T13:31:02.505Z,18.97
2019-05-02T13:33:32.445Z,21.63
2019-05-02T13:36:02.385Z,24.87
2019-05-02T13:38:27.692Z,22.98
2019-05-02T13:40:55.123Z,23.07
2019-05-02T13:43:22.575Z,24.50
2019-05-02T13:45:55.627Z,23.27
2019-05-02T13:48:23.072Z,24.47
2019-05-02T13:50:51.842Z,25.30
2019-05-02T13:53:18.003Z,24.40
2019-05-02T13:55:46.219Z,26.60
2019-05-02T13:58:13.677Z,25.03
2019-05-02T14:00:42.487Z,24.97
2019-05-02T14:03:08.933Z,27.73
2019-05-02T14:05:36.384Z,28.83
2019-05-02T14:08:09.411Z,29.43
2019-05-02T14:10:39.433Z,25.98
2019-05-02T14:13:04.342Z,23.40
2019-05-02T14:15:32.478Z,24.90
2019-05-02T14:18:02.337Z,26.50
2019-05-02T14:20:27.873Z,23.13
2019-05-02T14:22:55.332Z,22.87
2019-05-02T14:25:22.762Z,22.03
2019-05-02T14:27:53.841Z,21.40
2019-05-02T14:30:17.669Z,20.30
2019-05-02T14:32:45.131Z,19.90
2019-05-02T14:35:18.481Z,21.33
2019-05-02T14:37:43.295Z,21.02
2019-05-02T14:40:13.184Z,21.23
2019-05-02T14:42:41.871Z,22.27
2019-05-02T14:45:24.522Z,21.62
2019-05-02T14:47:36.693Z,19.95
2019-05-02T14:50:23.656Z,21.90
2019-05-02T14:53:03.460Z,19.47
2019-05-02T14:55:32.523Z,20.40
2019-05-02T14:58:05.933Z,20.97
2019-05-02T15:00:39.462Z,26.30
2019-05-02T15:03:00.450Z,27.37
2019-05-02T15:05:32.668Z,32.53
2019-05-02T15:08:02.601Z,31.87
2019-05-02T15:10:28.807Z,34.30
2019-05-02T15:12:59.454Z,33.57
2019-05-02T15:15:27.930Z,31.43
2019-05-02T15:18:00.076Z,35.00
2019-05-02T15:20:38.640Z,35.20
2019-05-02T15:22:57.545Z,33.90
2019-05-02T15:25:25.493Z,40.03
2019-05-02T15:28:00.003Z,42.20
2019-05-02T15:30:26.922Z,39.60
2019-05-02T15:32:58.324Z,40.07
2019-05-02T15:35:29.102Z,41.00
2019-05-02T15:38:01.802Z,36.30
2019-05-02T15:42:56.678Z,34.70
2019-05-02T15:45:23.975Z,36.85
2019-05-02T15:47:52.665Z,35.07
2019-05-02T15:50:25.470Z,33.70
2019-05-02T15:53:09.904Z,34.13
2019-05-02T15:55:39.548Z,33.13
2019-05-02T15:58:04.431Z,34.33
2019-05-02T16:00:33.537Z,34.85
2019-05-02T16:03:04.358Z,32.17
2019-05-02T16:05:36.465Z,35.37
2019-05-02T16:08:08.288Z,35.27
2019-05-02T16:10:31.605Z,38.40
2019-05-02T16:12:59.573Z,35.97
2019-05-02T16:15:27.715Z,34.13
2019-05-02T16:17:56.824Z,37.13
2019-05-02T16:20:48.829Z,36.60
2019-05-02T16:23:13.362Z,39.35
2019-05-02T16:25:44.344Z,38.93
2019-05-02T16:28:17.626Z,37.80
2019-05-02T16:30:49.580Z,40.33
2019-05-02T16:33:20.840Z,37.50
2019-05-02T16:35:51.522Z,41.10
2019-05-02T16:38:26.842Z,45.83
2019-05-02T16:41:09.752Z,18.17
2019-05-02T16:43:32.921Z,18.20
2019-05-02T16:46:06.830Z,11.52
2019-05-02T16:48:39.041Z,9.52
2019-05-02T16:51:08.262Z,9.00
2019-05-02T16:53:33.890Z,10.27
2019-05-02T16:56:03.656Z,10.57
2019-05-02T16:58:28.952Z,11.07
2019-05-02T17:00:57.951Z,10.83
2019-05-02T17:03:42.807Z,14.50
2019-05-02T17:06:16.866Z,14.07
2019-05-02T17:08:57.171Z,12.02
2019-05-02T17:11:32.383Z,12.77
2019-05-02T17:13:59.712Z,13.68
2019-05-02T17:16:31.574Z,11.54
2019-05-02T17:18:58.321Z,10.67
2019-05-02T17:21:31.431Z,11.27
2019-05-02T17:23:54.668Z,11.90
2019-05-02T17:26:22.827Z,12.35
2019-05-02T17:28:53.554Z,12.40
2019-05-02T17:31:23.021Z,12.60
2019-05-02T17:33:50.938Z,14.03
2019-05-02T17:36:21.518Z,13.13
2019-05-02T17:38:54.429Z,14.02
2019-05-02T17:41:22.600Z,13.60
2019-05-02T17:43:50.133Z,13.13
2019-05-02T17:46:18.301Z,13.55
2019-05-02T17:48:47.622Z,13.75
2019-05-02T17:51:33.871Z,14.33
2019-05-02T17:53:58.109Z,12.93
2019-05-02T17:56:25.718Z,12.27
2019-05-02T17:58:57.891Z,12.67
2019-05-02T18:01:26.320Z,12.30
2019-05-02T18:03:55.456Z,12.55
2019-05-02T18:06:32.345Z,12.83
2019-05-02T18:08:55.348Z,12.95
2019-05-02T18:11:24.385Z,14.93
2019-05-02T18:13:51.997Z,12.70
2019-05-02T18:16:21.659Z,14.03
2019-05-02T18:18:47.368Z,14.10
2019-05-02T18:21:17.743Z,13.57
2019-05-02T18:23:52.071Z,13.48
2019-05-02T18:26:19.026Z,13.37
2019-05-02T18:28:49.349Z,13.52
2019-05-02T18:31:14.550Z,15.50
2019-05-02T18:33:48.425Z,14.90
2019-05-02T18:36:23.861Z,14.80
2019-05-02T18:39:00.200Z,15.43
2019-05-02T18:41:27.928Z,15.20
2019-05-02T18:44:02.718Z,15.27
2019-05-02T18:46:36.783Z,15.00
2019-05-02T18:49:02.753Z,16.03
2019-05-02T18:51:29.452Z,17.20
2019-05-02T18:53:58.020Z,17.87
2019-05-02T18:56:24.505Z,16.92
2019-05-02T18:58:53.522Z,18.40
2019-05-02T19:01:20.979Z,18.77
2019-05-02T19:03:52.527Z,19.40
2019-05-02T19:06:16.853Z,19.77
2019-05-02T19:08:46.782Z,22.53
2019-05-02T19:11:12.558Z,21.77
2019-05-02T19:13:42.666Z,22.27
2019-05-02T19:16:19.431Z,22.60
2019-05-02T19:18:49.040Z,24.30
2019-05-02T19:23:53.333Z,24.10
2019-05-02T19:26:22.125Z,25.40
2019-05-02T19:28:53.667Z,26.87
2019-05-02T19:31:22.435Z,26.33
2019-05-02T19:33:49.423Z,28.50
2019-05-02T19:36:24.478Z,30.03
2019-05-02T19:38:44.480Z,32.03
2019-05-02T19:41:12.293Z,32.43
2019-05-02T19:46:16.842Z,31.67
2019-05-02T19:48:43.040Z,33.23
2019-05-02T19:51:12.691Z,34.22
2019-05-02T19:53:37.365Z,34.53
2019-05-02T19:56:06.704Z,32.73
2019-05-02T19:58:36.599Z,31.83
2019-05-02T20:00:59.790Z,34.43
2019-05-02T20:03:27.233Z,34.07
2019-05-02T20:05:56.800Z,32.60
2019-05-02T20:08:24.540Z,33.03
2019-05-02T20:10:56.875Z,34.27
2019-05-02T20:13:20.265Z,32.10
2019-05-02T20:15:47.387Z,34.43
2019-05-02T20:18:14.842Z,34.33
2019-05-02T20:20:45.680Z,32.55
2019-05-02T20:23:16.203Z,32.00
2019-05-02T20:25:42.570Z,30.90
2019-05-02T20:28:08.241Z,33.20
2019-05-02T20:30:35.694Z,29.37
2019-05-02T20:33:05.240Z,31.13
2019-05-02T20:35:31.917Z,32.10
2019-05-02T20:37:58.442Z,34.73
2019-05-02T20:40:31.898Z,29.20
2019-05-02T20:42:58.696Z,30.13
2019-05-02T20:45:26.158Z,24.43
2019-05-02T20:47:53.665Z,23.73
2019-05-02T20:50:22.394Z,22.83
2019-05-02T20:52:49.589Z,21.57
2019-05-02T20:55:17.052Z,23.70
2019-05-02T20:57:44.543Z,16.80
2019-05-02T21:00:23.485Z,11.63
2019-05-02T21:02:49.216Z,11.77
2019-05-02T21:05:19.329Z,10.93
2019-05-02T21:07:46.816Z,9.93
2019-05-02T21:10:14.223Z,9.10
2019-05-02T21:12:41.966Z,9.03
2019-05-02T21:15:09.138Z,8.43
2019-05-02T21:17:36.556Z,7.50
2019-05-02T21:20:04.042Z,7.83
2019-05-02T21:22:32.763Z,7.60
2019-05-02T21:24:59.200Z,7.40
2019-05-02T21:27:26.691Z,7.30
2019-05-02T21:29:54.151Z,6.10
2019-05-02T21:32:22.983Z,5.37
2019-05-02T21:34:49.072Z,5.05
2019-05-02T21:37:16.475Z,4.90
2019-05-02T21:39:43.933Z,5.07
2019-05-02T21:42:11.336Z,5.20
2019-05-02T21:44:39.429Z,5.05
2019-05-02T21:47:06.847Z,4.73
2019-05-02T21:49:53.884Z,5.10
2019-05-02T21:52:22.949Z,5.00
2019-05-02T21:54:52.100Z,4.85
2019-05-02T21:57:17.965Z,5.10
2019-05-02T21:59:45.443Z,4.43
2019-05-02T22:02:13.191Z,5.03
2019-05-02T22:04:42.325Z,4.40
2019-05-02T22:07:09.792Z,4.93
2019-05-02T22:09:37.256Z,4.67
2019-05-02T22:12:04.775Z,4.90
2019-05-02T22:14:32.873Z,4.68
2019-05-02T22:16:59.635Z,4.70
2019-05-02T22:19:27.054Z,4.70
2019-05-02T22:21:54.471Z,4.90
2019-05-02T22:24:21.870Z,4.68
2019-05-02T22:26:49.306Z,4.57
2019-05-02T22:29:16.700Z,3.93
2019-05-02T22:31:44.562Z,4.67
2019-05-02T22:36:47.538Z,3.83
2019-05-02T22:39:31.685Z,4.30
2019-05-02T22:41:58.685Z,4.40
2019-05-02T22:44:26.173Z,4.00
2019-05-02T22:46:53.629Z,3.90
2019-05-02T22:49:22.486Z,4.10
2019-05-02T22:51:49.021Z,4.47
2019-05-02T22:54:27.080Z,4.28
2019-05-02T22:56:44.074Z,4.37
2019-05-02T22:59:11.550Z,4.47
2019-05-02T23:01:39.008Z,4.70
2019-05-02T23:04:06.459Z,4.60
2019-05-02T23:06:33.927Z,4.50
2019-05-02T23:09:02.003Z,5.23
2019-05-02T23:11:28.899Z,4.83
2019-05-02T23:13:56.360Z,5.63
2019-05-02T23:16:24.767Z,5.40
2019-05-02T23:18:52.293Z,4.73
2019-05-02T23:21:21.713Z,5.80
2019-05-02T23:23:47.264Z,4.93
2019-05-02T23:26:15.515Z,5.23
2019-05-02T23:28:44.771Z,5.63
2019-05-02T23:31:14.048Z,5.60
2019-05-02T23:33:45.334Z,5.50
2019-05-02T23:36:12.785Z,5.87
2019-05-02T23:38:41.538Z,5.63
2019-05-02T23:41:08.400Z,5.07
2019-05-02T23:43:35.957Z,5.10
2019-05-02T23:46:03.415Z,5.00
2019-05-02T23:48:32.555Z,4.60
2019-05-02T23:50:58.382Z,5.10
2019-05-02T23:53:25.843Z,5.03
2019-05-02T23:55:53.306Z,5.23
2019-05-02T23:58:22.521Z,4.97
